createdAt,value
2023-04-29T00:01:16.178Z,101539.22
2023-04-29T00:03:45.421Z,101552.59
2023-04-29T00:06:13.283Z,101549.06
2023-04-29T00:08:41.078Z,101549.06
2023-04-29T00:11:08.763Z,101548.28
2023-04-29T00:13:36.492Z,101555.44
2023-04-29T00:16:04.288Z,101561.72
2023-04-29T00:18:32.397Z,101560.00
2023-04-29T00:21:02.211Z,101562.75
2023-04-29T00:23:29.871Z,101572.59
2023-04-29T00:25:57.503Z,101570.84
2023-04-29T00:28:25.173Z,101574.44
2023-04-29T00:30:53.468Z,101578.00
2023-04-29T00:33:21.306Z,101579.84
2023-04-29T00:35:49.124Z,101585.19
2023-04-29T00:38:18.173Z,101582.56
2023-04-29T00:40:46.355Z,101584.41
2023-04-29T00:43:14.091Z,101592.44
2023-04-29T00:45:41.854Z,101590.69
2023-04-29T00:48:09.652Z,101591.59
2023-04-29T00:50:37.898Z,101605.94
2023-04-29T00:53:05.999Z,101612.22
2023-04-29T00:55:36.718Z,101610.44
2023-04-29T00:58:04.360Z,101611.38
2023-04-29T01:00:32.427Z,101617.63
2023-04-29T01:03:00.538Z,101618.53
2023-04-29T01:05:28.429Z,101619.47
2023-04-29T01:08:13.851Z,101623.09
2023-04-29T01:10:50.518Z,101621.31
2023-04-29T01:13:25.490Z,101621.34
2023-04-29T01:16:02.144Z,101630.28
2023-04-29T01:18:34.047Z,101635.66
2023-04-29T01:21:01.922Z,101637.47
2023-04-29T01:23:31.276Z,101643.75
2023-04-29T01:25:59.684Z,101645.50
2023-04-29T01:28:41.904Z,101638.44
2023-04-29T01:31:16.595Z,101648.25
2023-04-29T01:33:53.554Z,101648.28
2023-04-29T01:36:32.711Z,101651.00
2023-04-29T01:39:10.877Z,101649.25
2023-04-29T01:41:44.270Z,101647.53
2023-04-29T01:44:17.833Z,101650.19
2023-04-29T01:46:54.964Z,101652.88
2023-04-29T01:49:22.907Z,101653.78
2023-04-29T01:51:50.623Z,101662.72
2023-04-29T01:54:19.772Z,101667.16
2023-04-29T01:56:47.461Z,101657.44
2023-04-29T01:59:15.316Z,101664.53
2023-04-29T02:01:42.931Z,101659.19
2023-04-29T02:04:10.546Z,101669.94
2023-04-29T02:06:38.589Z,101662.78
2023-04-29T02:09:06.381Z,101669.09
2023-04-29T02:11:35.408Z,101669.97
2023-04-29T02:14:03.011Z,101677.13
2023-04-29T02:16:31.154Z,101675.34
2023-04-29T02:18:58.735Z,101676.25
2023-04-29T02:21:27.089Z,101688.78
2023-04-29T02:23:55.077Z,101689.63
2023-04-29T02:26:23.780Z,101693.22
2023-04-29T02:28:53.511Z,101702.16
2023-04-29T02:31:21.214Z,101699.47
2023-04-29T02:33:48.974Z,101695.03
2023-04-29T02:36:17.696Z,101701.34
2023-04-29T02:38:45.407Z,101709.34
2023-04-29T02:41:17.672Z,101702.25
2023-04-29T02:43:45.391Z,101713.81
2023-04-29T02:46:14.445Z,101711.19
2023-04-29T02:48:42.087Z,101710.31
2023-04-29T02:51:09.713Z,101718.34
2023-04-29T02:53:37.357Z,101713.91
2023-04-29T02:56:06.127Z,101722.84
2023-04-29T02:58:33.802Z,101726.44
2023-04-29T03:01:01.461Z,101726.47
2023-04-29T03:03:30.574Z,101731.81
2023-04-29T03:05:58.212Z,101732.72
2023-04-29T03:08:26.040Z,101730.94
2023-04-29T03:10:53.823Z,101739.91
2023-04-29T03:13:21.526Z,101738.16
2023-04-29T03:15:49.196Z,101735.47
2023-04-29T03:18:16.865Z,101743.56
2023-04-29T03:20:45.871Z,101745.34
2023-04-29T03:23:13.515Z,101753.38
2023-04-29T03:25:41.692Z,101753.38
2023-04-29T03:28:09.656Z,101754.28
2023-04-29T03:30:37.715Z,101759.69
2023-04-29T03:33:05.707Z,101758.81
2023-04-29T03:35:33.967Z,101763.25
2023-04-29T03:38:02.930Z,101764.19
2023-04-29T03:40:30.723Z,101761.53
2023-04-29T03:42:58.483Z,101766.00
2023-04-29T03:45:26.246Z,101768.69
2023-04-29T03:47:54.812Z,101768.69
2023-04-29T03:50:22.573Z,101773.19
2023-04-29T03:52:50.555Z,101776.72
2023-04-29T03:55:19.714Z,101781.19
2023-04-29T03:57:47.305Z,101784.78
2023-04-29T04:00:15.429Z,101783.91
2023-04-29T04:02:43.306Z,101779.47
2023-04-29T04:05:11.743Z,101786.59
2023-04-29T04:07:39.522Z,101784.84
2023-04-29T04:10:07.928Z,101790.19
2023-04-29T04:12:36.972Z,101783.09
2023-04-29T04:15:05.095Z,101790.25
2023-04-29T04:17:32.794Z,101793.81
2023-04-29T04:20:00.491Z,101797.41
2023-04-29T04:22:28.224Z,101802.75
2023-04-29T04:24:56.056Z,101801.88
2023-04-29T04:27:24.245Z,101798.31
2023-04-29T04:29:56.186Z,101807.22
2023-04-29T04:32:24.072Z,101801.06
2023-04-29T04:34:52.178Z,101810.88
2023-04-29T04:37:19.857Z,101821.59
2023-04-29T04:39:47.903Z,101818.00
2023-04-29T04:42:15.668Z,101819.81
2023-04-29T04:44:43.509Z,101818.91
2023-04-29T04:47:12.623Z,101829.59
2023-04-29T04:49:40.332Z,101826.06
2023-04-29T04:52:07.975Z,101842.97
2023-04-29T04:54:35.555Z,101837.66
2023-04-29T04:57:06.316Z,101843.00
2023-04-29T04:59:34.691Z,101837.66
2023-04-29T05:02:02.335Z,101843.88
2023-04-29T05:04:31.515Z,101842.09
2023-04-29T05:06:59.223Z,101840.38
2023-04-29T05:09:27.031Z,101848.38
2023-04-29T05:11:54.926Z,101851.97
2023-04-29T05:14:22.555Z,101856.41
2023-04-29T05:16:51.507Z,101859.97
2023-04-29T05:19:19.238Z,101861.72
2023-04-29T05:21:48.274Z,101858.09
2023-04-29T05:24:16.335Z,101860.69
2023-04-29T05:26:44.309Z,101860.63
2023-04-29T05:29:12.117Z,101857.88
2023-04-29T05:31:39.800Z,101866.72
2023-04-29T05:34:07.379Z,101871.09
2023-04-29T05:36:35.034Z,101872.84
2023-04-29T05:39:04.027Z,101878.16
2023-04-29T05:41:31.676Z,101877.19
2023-04-29T05:43:59.398Z,101879.78
2023-04-29T05:46:27.050Z,101873.53
2023-04-29T05:48:54.692Z,101881.44
2023-04-29T05:51:22.275Z,101888.56
2023-04-29T05:53:49.916Z,101891.16
2023-04-29T05:56:19.299Z,101899.13
2023-04-29T05:58:47.118Z,101898.25
2023-04-29T06:01:14.898Z,101907.09
2023-04-29T06:03:42.920Z,101902.63
2023-04-29T06:06:11.697Z,101907.03
2023-04-29T06:08:39.700Z,101915.91
2023-04-29T06:11:07.369Z,101911.44
2023-04-29T06:13:36.423Z,101913.19
2023-04-29T06:16:04.626Z,101918.47
2023-04-29T06:18:32.336Z,101925.59
2023-04-29T06:21:00.034Z,101927.34
2023-04-29T06:23:27.739Z,101927.31
2023-04-29T06:25:55.669Z,101941.59
2023-04-29T06:28:23.502Z,101936.25
2023-04-29T06:30:52.607Z,101949.59
2023-04-29T06:33:20.300Z,101949.53
2023-04-29T06:35:47.939Z,101954.03
2023-04-29T06:38:15.656Z,101954.03
2023-04-29T06:40:43.521Z,101954.88
2023-04-29T06:43:11.317Z,101965.59
2023-04-29T06:45:39.086Z,101962.88
2023-04-29T06:48:08.569Z,101978.03
2023-04-29T06:50:36.394Z,101978.91
2023-04-29T06:53:04.151Z,101981.56
2023-04-29T06:55:31.866Z,101982.47
2023-04-29T06:57:59.592Z,101979.75
2023-04-29T07:00:27.236Z,101974.41
2023-04-29T07:02:55.827Z,101984.19
2023-04-29T07:05:25.323Z,101992.16
2023-04-29T07:07:53.090Z,101993.06
2023-04-29T07:10:20.812Z,101993.97
2023-04-29T07:12:48.622Z,101993.06
2023-04-29T07:15:16.446Z,102001.09
2023-04-29T07:17:44.276Z,102001.03
2023-04-29T07:20:13.188Z,102008.16
2023-04-29T07:22:42.293Z,102010.81
2023-04-29T07:25:11.107Z,102009.94
2023-04-29T07:27:38.996Z,102006.34
2023-04-29T07:30:08.039Z,102018.78
2023-04-29T07:32:35.855Z,102025.91
2023-04-29T07:35:03.779Z,102019.66
2023-04-29T07:37:31.504Z,102026.78
2023-04-29T07:40:00.953Z,102029.47
2023-04-29T07:42:28.674Z,102026.75
2023-04-29T07:44:56.421Z,102032.97
2023-04-29T07:47:24.291Z,102037.41
2023-04-29T07:49:52.725Z,102037.41
2023-04-29T07:52:20.417Z,102041.84
2023-04-29T07:54:48.140Z,102040.03
2023-04-29T07:57:17.354Z,102045.41
2023-04-29T07:59:45.146Z,102053.38
2023-04-29T08:02:13.848Z,102052.47
2023-04-29T08:04:42.660Z,102048.91
2023-04-29T08:07:10.730Z,102043.47
2023-04-29T08:09:38.650Z,102045.16
2023-04-29T08:12:06.769Z,102048.66
2023-04-29T08:14:35.840Z,102049.50
2023-04-29T08:17:03.618Z,102047.66
2023-04-29T08:19:31.689Z,102044.94
2023-04-29T08:22:01.139Z,102052.03
2023-04-29T08:24:29.718Z,102053.75
2023-04-29T08:26:58.845Z,102051.94
2023-04-29T08:29:26.596Z,102062.59
2023-04-29T08:31:56.283Z,102060.75
2023-04-29T08:34:24.447Z,102067.91
2023-04-29T08:36:52.140Z,102069.63
2023-04-29T08:39:20.715Z,102073.19
2023-04-29T08:41:51.532Z,102071.38
2023-04-29T08:44:19.701Z,102068.69
2023-04-29T08:46:48.429Z,102071.38
2023-04-29T08:49:17.924Z,102071.31
2023-04-29T08:51:45.754Z,102073.97
2023-04-29T08:54:13.814Z,102073.06
2023-04-29T08:56:45.896Z,102076.63
2023-04-29T08:59:16.400Z,102083.72
2023-04-29T09:01:49.766Z,102087.31
2023-04-29T09:04:30.249Z,102103.38
2023-04-29T09:06:59.375Z,102110.50
2023-04-29T09:09:27.501Z,102105.16
2023-04-29T09:11:55.887Z,102099.75
2023-04-29T09:14:24.675Z,102105.06
2023-04-29T09:16:52.778Z,102100.59
2023-04-29T09:19:35.377Z,102105.97
2023-04-29T09:22:05.149Z,102105.06
2023-04-29T09:24:33.181Z,102109.56
2023-04-29T09:27:03.243Z,102116.69
2023-04-29T09:29:33.055Z,102114.88
2023-04-29T09:32:01.281Z,102123.72
2023-04-29T09:34:35.900Z,102123.78
2023-04-29T09:37:03.963Z,102118.50
2023-04-29T09:39:40.923Z,102122.13
2023-04-29T09:42:09.976Z,102124.94
2023-04-29T09:44:38.189Z,102117.81
2023-04-29T09:47:07.643Z,102117.81
2023-04-29T09:49:39.407Z,102113.38
2023-04-29T09:52:09.759Z,102119.63
2023-04-29T09:54:39.853Z,102122.34
2023-04-29T09:57:09.996Z,102117.94
2023-04-29T09:59:39.990Z,102117.00
2023-04-29T10:02:15.435Z,102118.75
2023-04-29T10:04:47.374Z,102116.00
2023-04-29T10:07:17.676Z,102116.00
2023-04-29T10:09:48.875Z,102131.13
2023-04-29T10:12:19.485Z,102127.53
2023-04-29T10:14:53.181Z,102126.63
2023-04-29T10:17:31.254Z,102124.84
2023-04-29T10:20:07.518Z,102123.03
2023-04-29T10:22:42.190Z,102117.66
2023-04-29T10:25:13.449Z,102124.81
2023-04-29T10:27:45.207Z,102130.19
2023-04-29T10:30:15.309Z,102130.19
2023-04-29T10:32:51.124Z,102125.69
2023-04-29T10:35:25.624Z,102120.38
2023-04-29T10:37:55.113Z,102129.28
2023-04-29T10:40:29.763Z,102128.41
2023-04-29T10:42:59.613Z,102126.63
2023-04-29T10:45:31.260Z,102125.81
2023-04-29T10:48:16.581Z,102120.63
2023-04-29T10:51:05.562Z,102134.06
2023-04-29T10:53:33.996Z,102134.09
2023-04-29T10:56:07.347Z,102132.38
2023-04-29T10:58:41.206Z,102133.34
2023-04-29T11:01:11.421Z,102131.63
2023-04-29T11:04:00.084Z,102147.75
2023-04-29T11:06:42.201Z,102141.59
2023-04-29T11:09:14.671Z,102130.91
2023-04-29T11:11:47.385Z,102136.28
2023-04-29T11:14:16.387Z,102128.28
2023-04-29T11:16:53.749Z,102147.00
2023-04-29T11:19:22.081Z,102137.25
2023-04-29T11:22:05.956Z,102135.44
2023-04-29T11:24:35.650Z,102147.97
2023-04-29T11:27:05.878Z,102146.13
2023-04-29T11:29:35.240Z,102150.63
2023-04-29T11:32:03.238Z,102147.13
2023-04-29T11:34:31.057Z,102143.56
2023-04-29T11:37:00.954Z,102148.00
2023-04-29T11:39:29.531Z,102156.91
2023-04-29T11:42:05.285Z,102149.78
2023-04-29T11:44:35.656Z,102158.69
2023-04-29T11:47:04.620Z,102150.66
2023-04-29T11:49:33.685Z,102166.75
2023-04-29T11:52:03.409Z,102165.88
2023-04-29T11:54:32.214Z,102164.97
2023-04-29T11:57:00.143Z,102168.53
2023-04-29T11:59:28.345Z,102172.13
2023-04-29T12:01:56.987Z,102172.13
2023-04-29T12:04:24.853Z,102168.56
2023-04-29T12:06:53.710Z,102171.22
2023-04-29T12:09:23.076Z,102171.22
2023-04-29T12:11:51.291Z,102169.50
2023-04-29T12:14:20.385Z,102165.94
2023-04-29T12:16:48.514Z,102162.41
2023-04-29T12:19:16.496Z,102165.06
2023-04-29T12:21:52.392Z,102167.75
2023-04-29T12:24:23.186Z,102165.97
2023-04-29T12:26:51.385Z,102165.13
2023-04-29T12:29:23.138Z,102168.69
2023-04-29T12:31:51.796Z,102165.13
2023-04-29T12:34:26.485Z,102166.88
2023-04-29T12:36:57.910Z,102161.53
2023-04-29T12:39:27.399Z,102168.66
2023-04-29T12:41:59.134Z,102165.06
2023-04-29T12:44:27.492Z,102170.44
2023-04-29T12:46:58.255Z,102177.56
2023-04-29T12:49:26.578Z,102186.44
2023-04-29T12:51:54.676Z,102182.88
2023-04-29T12:54:22.344Z,102182.91
2023-04-29T12:56:52.231Z,102181.06
2023-04-29T12:59:19.937Z,102175.69
2023-04-29T13:01:48.057Z,102169.41
2023-04-29T13:04:16.348Z,102176.56
2023-04-29T13:06:44.997Z,102182.81
2023-04-29T13:09:18.122Z,102188.16
2023-04-29T13:11:46.984Z,102182.81
2023-04-29T13:14:17.006Z,102188.16
2023-04-29T13:16:45.309Z,102193.50
2023-04-29T13:19:30.574Z,102193.47
2023-04-29T13:22:03.056Z,102193.41
2023-04-29T13:24:33.526Z,102196.06
2023-04-29T13:27:03.548Z,102204.00
2023-04-29T13:29:32.923Z,102202.16
2023-04-29T13:32:01.129Z,102209.22
2023-04-29T13:34:29.026Z,102205.59
2023-04-29T13:36:56.981Z,102206.41
2023-04-29T13:39:25.101Z,102209.03
2023-04-29T13:41:58.186Z,102218.78
2023-04-29T13:44:37.665Z,102214.25
2023-04-29T13:47:21.187Z,102202.59
2023-04-29T13:55:26.347Z,102208.75
2023-04-29T14:00:37.826Z,102228.31
2023-04-29T14:03:03.812Z,102224.72
2023-04-29T14:05:32.273Z,102228.22
2023-04-29T14:08:00.218Z,102239.78
2023-04-29T14:10:28.101Z,102242.47
2023-04-29T14:12:55.901Z,102251.38
2023-04-29T14:15:23.694Z,102238.78
2023-04-29T14:17:51.465Z,102238.78
2023-04-29T14:20:20.879Z,102243.22
2023-04-29T14:22:48.696Z,102251.25
2023-04-29T14:25:16.664Z,102248.56
2023-04-29T14:27:44.799Z,102246.75
2023-04-29T14:30:13.358Z,102253.03
2023-04-29T14:32:41.346Z,102253.84
2023-04-29T14:35:10.421Z,102242.22
2023-04-29T14:37:40.057Z,102252.06
2023-04-29T14:40:09.499Z,102247.66
2023-04-29T14:42:37.480Z,102254.78
2023-04-29T14:45:06.831Z,102253.84
2023-04-29T14:47:35.577Z,102242.22
2023-04-29T14:50:04.195Z,102257.34
2023-04-29T14:52:32.116Z,102251.13
2023-04-29T14:55:01.155Z,102255.56
2023-04-29T14:57:29.912Z,102253.75
2023-04-29T14:59:57.947Z,102256.44
2023-04-29T15:02:25.738Z,102261.75
2023-04-29T15:04:53.829Z,102265.31
2023-04-29T15:07:23.285Z,102257.25
2023-04-29T15:09:51.569Z,102261.72
2023-04-29T15:12:22.333Z,102264.38
2023-04-29T15:14:50.424Z,102265.31
2023-04-29T15:17:18.567Z,102263.50
2023-04-29T15:19:46.948Z,102268.81
2023-04-29T15:22:14.981Z,102259.81
2023-04-29T15:24:43.192Z,102264.28
2023-04-29T15:27:11.249Z,102262.50
2023-04-29T15:29:41.552Z,102266.91
2023-04-29T15:32:10.359Z,102269.59
2023-04-29T15:34:38.760Z,102265.97
2023-04-29T15:37:06.482Z,102264.16
2023-04-29T15:39:34.388Z,102270.38
2023-04-29T15:42:02.366Z,102257.88
2023-04-29T15:44:31.078Z,102270.38
2023-04-29T15:47:01.270Z,102265.91
2023-04-29T15:49:29.039Z,102274.81
2023-04-29T15:51:56.809Z,102272.09
2023-04-29T15:54:24.981Z,102282.78
2023-04-29T15:56:52.776Z,102286.34
2023-04-29T15:59:21.050Z,102287.22
2023-04-29T16:01:48.947Z,102293.47
2023-04-29T16:04:18.993Z,102297.91
2023-04-29T16:06:47.402Z,102295.22
2023-04-29T16:09:15.529Z,102307.72
2023-04-29T16:11:44.411Z,102300.53
2023-04-29T16:14:12.727Z,102304.09
2023-04-29T16:16:40.988Z,102305.00
2023-04-29T16:19:10.136Z,102300.53
2023-04-29T16:21:39.833Z,102300.53
2023-04-29T16:24:07.832Z,102300.50
2023-04-29T16:26:36.826Z,102295.13
2023-04-29T16:29:05.270Z,102293.31
2023-04-29T16:31:33.453Z,102296.84
2023-04-29T16:34:01.696Z,102303.09
2023-04-29T16:36:30.207Z,102303.03
2023-04-29T16:39:00.357Z,102304.81
2023-04-29T16:41:28.216Z,102303.91
2023-04-29T16:43:56.666Z,102305.69
2023-04-29T16:46:25.544Z,102305.69
2023-04-29T16:48:56.844Z,102308.38
2023-04-29T16:51:26.284Z,102304.81
2023-04-29T16:53:54.231Z,102308.41
2023-04-29T16:56:23.291Z,102312.88
2023-04-29T16:58:51.135Z,102312.88
2023-04-29T17:01:19.770Z,102311.13
2023-04-29T17:03:48.126Z,102311.13
2023-04-29T17:06:16.757Z,102305.75
2023-04-29T17:08:45.532Z,102309.34
2023-04-29T17:11:13.330Z,102304.88
2023-04-29T17:13:44.770Z,102305.75
2023-04-29T17:16:14.029Z,102308.44
2023-04-29T17:18:41.881Z,102310.25
2023-04-29T17:21:09.848Z,102305.81
2023-04-29T17:23:38.372Z,102306.69
2023-04-29T17:26:07.410Z,102307.59
2023-04-29T17:28:35.134Z,102310.28
2023-04-29T17:31:06.101Z,102306.72
2023-04-29T17:33:35.431Z,102306.78
2023-04-29T17:36:05.307Z,102305.91
2023-04-29T17:38:34.042Z,102311.25
2023-04-29T17:41:02.120Z,102300.56
2023-04-29T17:43:32.423Z,102299.75
2023-04-29T17:46:00.426Z,102301.56
2023-04-29T17:48:29.478Z,102309.69
2023-04-29T17:50:57.122Z,102301.59
2023-04-29T17:53:24.911Z,102299.63
2023-04-29T17:55:52.620Z,102296.78
2023-04-29T17:58:21.369Z,102297.53
2023-04-29T18:00:49.130Z,102297.38
2023-04-29T18:03:16.897Z,102300.81
2023-04-29T18:05:47.323Z,102301.59
2023-04-29T18:08:15.104Z,102307.88
2023-04-29T18:10:43.027Z,102308.81
2023-04-29T18:13:11.576Z,102305.19
2023-04-29T18:15:39.893Z,102309.63
2023-04-29T18:18:08.003Z,102311.38
2023-04-29T18:20:36.264Z,102312.22
2023-04-29T18:23:05.268Z,102309.50
2023-04-29T18:25:36.495Z,102313.03
2023-04-29T18:28:19.400Z,102309.41
2023-04-29T18:30:52.454Z,102313.81
2023-04-29T18:33:20.371Z,102314.69
2023-04-29T18:35:48.234Z,102319.09
2023-04-29T18:38:17.567Z,102313.66
2023-04-29T18:40:45.569Z,102317.22
2023-04-29T18:43:17.023Z,102319.84
2023-04-29T18:45:44.954Z,102330.53
2023-04-29T18:48:13.060Z,102335.00
2023-04-29T18:50:41.341Z,102331.41
2023-04-29T18:53:09.789Z,102329.63
2023-04-29T18:55:38.959Z,102330.50
2023-04-29T18:58:06.549Z,102331.38
2023-04-29T19:00:34.096Z,102330.44
2023-04-29T19:03:01.878Z,102337.59
2023-04-29T19:05:29.727Z,102336.69
2023-04-29T19:07:57.554Z,102335.75
2023-04-29T19:10:26.081Z,102350.06
2023-04-29T19:12:55.392Z,102349.16
2023-04-29T19:15:25.196Z,102351.84
2023-04-29T19:17:52.981Z,102356.28
2023-04-29T19:20:20.917Z,102355.38
2023-04-29T19:22:48.714Z,102364.31
2023-04-29T19:25:16.415Z,102362.50
2023-04-29T19:27:45.651Z,102366.06
2023-04-29T19:30:14.949Z,102370.53
2023-04-29T19:32:42.881Z,102375.91
2023-04-29T19:35:11.860Z,102364.25
2023-04-29T19:37:39.549Z,102375.81
2023-04-29T19:40:10.134Z,102386.47
2023-04-29T19:42:38.122Z,102384.63
2023-04-29T19:45:07.597Z,102387.28
2023-04-29T19:47:37.200Z,102378.31
2023-04-29T19:50:06.411Z,102384.53
2023-04-29T19:52:34.120Z,102380.03
2023-04-29T19:55:01.944Z,102380.91
2023-04-29T19:57:30.523Z,102379.06
2023-04-29T19:59:58.368Z,102382.66
2023-04-29T20:02:26.451Z,102379.06
2023-04-29T20:04:55.981Z,102367.41
2023-04-29T20:07:23.680Z,102379.94
2023-04-29T20:09:51.678Z,102376.34
2023-04-29T20:12:19.590Z,102375.53
2023-04-29T20:14:47.330Z,102378.25
2023-04-29T20:17:16.401Z,102380.03
2023-04-29T20:19:44.470Z,102386.31
2023-04-29T20:22:13.964Z,102387.28
2023-04-29T20:24:42.306Z,102389.13
2023-04-29T20:27:10.161Z,102384.69
2023-04-29T20:29:38.301Z,102384.69
2023-04-29T20:32:07.142Z,102383.78
2023-04-29T20:34:38.525Z,102389.16
2023-04-29T20:37:07.125Z,102388.25
2023-04-29T20:39:37.125Z,102393.56
2023-04-29T20:42:05.379Z,102393.56
2023-04-29T20:44:34.122Z,102400.75
2023-04-29T20:47:02.144Z,102398.06
2023-04-29T20:49:30.575Z,102391.81
2023-04-29T20:51:59.720Z,102394.50
2023-04-29T20:54:28.410Z,102388.19
2023-04-29T20:56:58.383Z,102390.00
2023-04-29T20:59:26.554Z,102392.69
2023-04-29T21:01:54.465Z,102398.09
2023-04-29T21:04:23.198Z,102401.66
2023-04-29T21:06:52.755Z,102400.75
2023-04-29T21:09:21.475Z,102395.38
2023-04-29T21:11:50.132Z,102398.97
2023-04-29T21:14:20.074Z,102399.88
2023-04-29T21:16:48.134Z,102400.75
2023-04-29T21:19:16.824Z,102398.03
2023-04-29T21:21:44.803Z,102395.38
2023-04-29T21:24:12.943Z,102408.81
2023-04-29T21:26:41.121Z,102409.72
2023-04-29T21:29:09.114Z,102406.16
2023-04-29T21:31:38.616Z,102408.81
2023-04-29T21:34:07.073Z,102406.16
2023-04-29T21:36:34.724Z,102406.16
2023-04-29T21:39:03.149Z,102409.72
2023-04-29T21:41:37.467Z,102414.22
2023-04-29T21:44:07.676Z,102399.88
2023-04-29T21:46:37.283Z,102406.19
2023-04-29T21:49:07.489Z,102399.94
2023-04-29T21:51:35.759Z,102405.31
2023-04-29T21:54:05.909Z,102400.75
2023-04-29T21:56:34.361Z,102398.63
2023-04-29T21:59:02.945Z,102393.00
2023-04-29T22:01:48.602Z,102398.28
2023-04-29T22:04:18.865Z,102398.38
2023-04-29T22:06:46.612Z,102400.28
2023-04-29T22:09:14.441Z,102401.38
2023-04-29T22:11:42.415Z,102407.84
2023-04-29T22:14:10.055Z,102403.56
2023-04-29T22:16:38.013Z,102413.59
2023-04-29T22:19:07.607Z,102419.16
2023-04-29T22:21:38.126Z,102408.59
2023-04-29T22:24:06.374Z,102408.81
2023-04-29T22:26:33.965Z,102408.94
2023-04-29T22:29:01.581Z,102413.47
2023-04-29T22:31:29.301Z,102416.28
2023-04-29T22:33:56.931Z,102412.81
2023-04-29T22:36:24.566Z,102412.94
2023-04-29T22:38:53.554Z,102420.16
2023-04-29T22:41:21.656Z,102422.06
2023-04-29T22:43:49.286Z,102419.44
2023-04-29T22:46:16.989Z,102424.91
2023-04-29T22:48:44.618Z,102424.09
2023-04-29T22:51:12.310Z,102428.63
2023-04-29T22:53:39.981Z,102426.91
2023-04-29T22:56:09.167Z,102428.78
2023-04-29T22:58:36.859Z,102427.94
2023-04-29T23:01:04.510Z,102436.97
2023-04-29T23:03:32.142Z,102431.63
2023-04-29T23:06:00.343Z,102431.66
2023-04-29T23:08:28.261Z,102435.28
2023-04-29T23:10:56.016Z,102438.91
2023-04-29T23:13:25.060Z,102438.97
2023-04-29T23:15:55.803Z,102435.44
2023-04-29T23:18:23.512Z,102438.13
2023-04-29T23:20:51.266Z,102439.94
2023-04-29T23:23:18.912Z,102435.53
2023-04-29T23:25:46.753Z,102435.59
2023-04-29T23:28:14.491Z,102440.91
2023-04-29T23:30:43.638Z,102444.53
2023-04-29T23:33:11.284Z,102441.84
2023-04-29T23:35:38.905Z,102446.38
2023-04-29T23:38:06.564Z,102441.91
2023-04-29T23:40:34.194Z,102443.75
2023-04-29T23:43:02.052Z,102444.66
2023-04-29T23:45:29.720Z,102441.09
2023-04-29T23:47:58.823Z,102444.69
2023-04-29T23:50:26.617Z,102450.09
2023-04-29T23:52:54.310Z,102444.75
2023-04-29T23:55:21.898Z,102449.25
2023-04-29T23:57:49.561Z,102449.28
